Terminal Aerodrome Forecast
Issued by NWS Cleveland, OH

Home | Current Version | Previous Version | Text Only | Print | Product List | Glossary Off
Versions: 1 2 3 4 5 6 7 8 9 10 11 12 13 14 15 16 17 18

000
FTUS41 KCLE 260000 AAB
TAFTOL
TAF AMD
KTOL 260057Z 2601/2624 05012KT 6SM -SN OVC035
      TEMPO 2601/2602 5SM -SN BR OVC025
     FM260400 04011KT P6SM -SN SCT035 OVC060
      TEMPO 2604/2606 5SM -SN BKN035
     FM260800 02008KT P6SM SCT045 OVC120
     FM261500 02008KT P6SM SCT045 BKN250=

USA.gov is the U.S. government's official web portal to all federal, state and local government web resources and services.